createdAt,value
2022-07-25T00:00:55.900Z,1011.83
2022-07-25T00:01:56.868Z,1011.84
2022-07-25T00:02:56.641Z,1011.81
2022-07-25T00:03:57.124Z,1011.76
2022-07-25T00:04:57.501Z,1011.82
2022-07-25T00:05:57.779Z,1011.78
2022-07-25T00:06:58.133Z,1011.79
2022-07-25T00:07:58.529Z,1011.74
2022-07-25T00:08:58.862Z,1011.72
2022-07-25T00:09:59.223Z,1011.73
2022-07-25T00:10:59.583Z,1011.70
2022-07-25T00:11:59.947Z,1011.69
2022-07-25T00:13:00.297Z,1011.73
2022-07-25T00:14:00.700Z,1011.70
2022-07-25T00:15:01.018Z,1011.67
2022-07-25T00:16:01.439Z,1011.70
2022-07-25T00:17:01.743Z,1011.64
2022-07-25T00:18:02.100Z,1011.63
2022-07-25T00:19:02.478Z,1011.61
2022-07-25T00:20:02.837Z,1011.57
2022-07-25T00:21:03.193Z,1011.59
2022-07-25T00:22:03.552Z,1011.59
2022-07-25T00:23:03.911Z,1011.62
2022-07-25T00:24:04.693Z,1011.57
2022-07-25T00:25:04.638Z,1011.57
2022-07-25T00:26:04.990Z,1011.60
2022-07-25T00:27:05.342Z,1011.56
2022-07-25T00:28:05.709Z,1011.59
2022-07-25T00:29:06.082Z,1011.53
2022-07-25T00:30:06.433Z,1011.51
2022-07-25T00:31:06.812Z,1011.55
2022-07-25T00:32:07.174Z,1011.55
2022-07-25T00:33:07.537Z,1011.52
2022-07-25T00:34:08.468Z,1011.52
2022-07-25T00:35:08.285Z,1011.54
2022-07-25T00:36:08.610Z,1011.45
2022-07-25T00:37:08.972Z,1011.46
2022-07-25T00:38:09.335Z,1011.44
2022-07-25T00:39:09.704Z,1011.46
2022-07-25T00:40:10.058Z,1011.39
2022-07-25T00:41:10.415Z,1011.40
2022-07-25T00:42:10.788Z,1011.38
2022-07-25T00:43:11.156Z,1011.36
2022-07-25T00:44:11.526Z,1011.36
2022-07-25T00:45:11.881Z,1011.35
2022-07-25T00:46:12.308Z,1011.36
2022-07-25T00:47:12.614Z,1011.31
2022-07-25T00:48:12.970Z,1011.39
2022-07-25T00:49:13.454Z,1011.34
2022-07-25T00:50:13.713Z,1011.37
2022-07-25T00:51:14.064Z,1011.33
2022-07-25T00:52:14.433Z,1011.33
2022-07-25T00:53:14.799Z,1011.36
2022-07-25T00:54:15.247Z,1011.32
2022-07-25T00:55:15.516Z,1011.29
2022-07-25T00:56:15.867Z,1011.28
2022-07-25T00:57:16.230Z,1011.23
2022-07-25T00:58:16.588Z,1011.26
2022-07-25T00:59:16.959Z,1011.27
2022-07-25T01:00:17.320Z,1011.21
2022-07-25T01:01:17.753Z,1011.26
2022-07-25T01:02:18.089Z,1011.24
2022-07-25T01:03:18.551Z,1011.25
2022-07-25T01:04:18.781Z,1011.25
2022-07-25T01:05:19.094Z,1011.25
2022-07-25T01:06:19.455Z,1011.24
2022-07-25T01:07:19.813Z,1011.27
2022-07-25T01:08:20.180Z,1011.21
2022-07-25T01:09:20.560Z,1011.23
2022-07-25T01:10:20.917Z,1011.23
2022-07-25T01:11:21.273Z,1011.25
2022-07-25T01:12:21.632Z,1011.23
2022-07-25T01:13:22.001Z,1011.22
2022-07-25T01:14:22.368Z,1011.23
2022-07-25T01:15:22.725Z,1011.18
2022-07-25T01:16:23.131Z,1011.18
2022-07-25T01:17:23.445Z,1011.19
2022-07-25T01:18:23.790Z,1011.17
2022-07-25T01:19:24.164Z,1011.16
2022-07-25T01:20:24.544Z,1011.17
2022-07-25T01:21:24.901Z,1011.14
2022-07-25T01:22:25.259Z,1011.15
2022-07-25T01:23:25.629Z,1011.12
2022-07-25T01:24:26.007Z,1011.08
2022-07-25T01:25:26.366Z,1011.07
2022-07-25T01:26:26.720Z,1011.10
2022-07-25T01:27:27.097Z,1011.03
2022-07-25T01:28:27.439Z,1011.05
2022-07-25T01:29:27.811Z,1011.01
2022-07-25T01:30:28.166Z,1011.06
2022-07-25T01:31:28.585Z,1011.06
2022-07-25T01:32:28.994Z,1011.09
2022-07-25T01:33:29.250Z,1011.09
2022-07-25T01:34:29.643Z,1011.04
2022-07-25T01:35:29.961Z,1011.02
2022-07-25T01:36:30.309Z,1010.98
2022-07-25T01:37:30.686Z,1011.02
2022-07-25T01:38:31.040Z,1011.00
2022-07-25T01:39:31.423Z,1010.94
2022-07-25T01:40:31.744Z,1010.94
2022-07-25T01:41:32.104Z,1010.99
2022-07-25T01:42:32.458Z,1010.98
2022-07-25T01:43:32.826Z,1010.96
2022-07-25T01:44:33.191Z,1010.96
2022-07-25T01:45:33.545Z,1010.98
2022-07-25T01:46:33.974Z,1010.96
2022-07-25T01:47:34.263Z,1010.93
2022-07-25T01:48:34.650Z,1010.93
2022-07-25T01:49:35.010Z,1010.86
2022-07-25T01:50:35.384Z,1010.88
2022-07-25T01:51:35.876Z,1010.80
2022-07-25T01:52:36.082Z,1010.84
2022-07-25T01:53:36.451Z,1010.81
2022-07-25T01:54:36.815Z,1010.79
2022-07-25T01:55:37.173Z,1010.74
2022-07-25T01:56:37.558Z,1010.78
2022-07-25T01:57:37.905Z,1010.71
2022-07-25T01:58:38.250Z,1010.71
2022-07-25T01:59:38.626Z,1010.73
2022-07-25T02:00:38.949Z,1010.66
2022-07-25T02:01:39.423Z,1010.69
2022-07-25T02:02:39.685Z,1010.67
2022-07-25T02:03:40.044Z,1010.65
2022-07-25T02:04:40.456Z,1010.62
2022-07-25T02:05:40.767Z,1010.59
2022-07-25T02:06:41.140Z,1010.64
2022-07-25T02:07:41.492Z,1010.54
2022-07-25T02:08:41.851Z,1010.56
2022-07-25T02:09:42.263Z,1010.51
2022-07-25T02:10:42.608Z,1010.50
2022-07-25T02:11:42.935Z,1010.54
2022-07-25T02:12:43.301Z,1010.51
2022-07-25T02:13:43.651Z,1010.51
2022-07-25T02:14:44.027Z,1010.45
2022-07-25T02:15:44.390Z,1010.45
2022-07-25T02:16:44.794Z,1010.44
2022-07-25T02:17:45.089Z,1010.45
2022-07-25T02:18:45.507Z,1010.43
2022-07-25T02:19:45.836Z,1010.42
2022-07-25T02:20:46.180Z,1010.42
2022-07-25T02:21:46.547Z,1010.43
2022-07-25T02:22:46.903Z,1010.40
2022-07-25T02:23:47.261Z,1010.40
2022-07-25T02:24:47.616Z,1010.39
2022-07-25T02:25:47.972Z,1010.33
2022-07-25T02:26:48.330Z,1010.33
2022-07-25T02:27:48.696Z,1010.37
2022-07-25T02:28:49.081Z,1010.32
2022-07-25T02:29:49.449Z,1010.32
2022-07-25T02:30:49.875Z,1010.32
2022-07-25T02:31:50.151Z,1010.32
2022-07-25T02:32:50.494Z,1010.31
2022-07-25T02:33:50.860Z,1010.28
2022-07-25T02:34:51.230Z,1010.25
2022-07-25T02:35:51.619Z,1010.23
2022-07-25T02:36:51.994Z,1010.23
2022-07-25T02:37:52.376Z,1010.19
2022-07-25T02:38:52.769Z,1010.17
2022-07-25T02:39:53.183Z,1010.15
2022-07-25T02:40:53.518Z,1010.16
2022-07-25T02:41:53.903Z,1010.13
2022-07-25T02:42:54.017Z,1010.13
2022-07-25T02:43:54.203Z,1010.08
2022-07-25T02:44:54.407Z,1010.10
2022-07-25T02:45:54.629Z,1010.08
2022-07-25T02:46:54.842Z,1010.08
2022-07-25T02:47:55.010Z,1010.12
2022-07-25T02:48:55.229Z,1010.07
2022-07-25T02:49:55.366Z,1010.07
2022-07-25T02:50:55.546Z,1010.08
2022-07-25T02:51:55.688Z,1010.05
2022-07-25T02:52:55.853Z,1010.03
2022-07-25T02:53:58.075Z,1010.01
2022-07-25T02:54:56.398Z,1010.04
2022-07-25T02:55:56.494Z,1010.03
2022-07-25T02:56:56.654Z,1009.96
2022-07-25T02:57:56.820Z,1010.00
2022-07-25T02:58:57.109Z,1010.00
2022-07-25T02:59:57.320Z,1009.97
2022-07-25T03:00:57.577Z,1010.00
2022-07-25T03:01:57.767Z,1010.01
2022-07-25T03:02:57.945Z,1009.96
2022-07-25T03:03:58.296Z,1009.95
2022-07-25T03:04:58.563Z,1009.96
2022-07-25T03:05:58.715Z,1009.98
2022-07-25T03:06:58.889Z,1009.92
2022-07-25T03:07:59.175Z,1009.89
2022-07-25T03:08:59.475Z,1009.83
2022-07-25T03:09:59.783Z,1009.87
2022-07-25T03:11:00.044Z,1009.82
2022-07-25T03:12:00.330Z,1009.89
2022-07-25T03:13:00.618Z,1009.84
2022-07-25T03:14:00.907Z,1009.84
2022-07-25T03:15:01.207Z,1009.82
2022-07-25T03:16:01.508Z,1009.84
2022-07-25T03:17:01.879Z,1009.78
2022-07-25T03:18:02.107Z,1009.78
2022-07-25T03:19:02.372Z,1009.79
2022-07-25T03:20:02.559Z,1009.77
2022-07-25T03:21:02.847Z,1009.72
2022-07-25T03:22:03.129Z,1009.74
2022-07-25T03:23:03.306Z,1009.71
2022-07-25T03:24:03.459Z,1009.70
2022-07-25T03:25:03.657Z,1009.69
2022-07-25T03:26:03.829Z,1009.74
2022-07-25T03:27:03.985Z,1009.73
2022-07-25T03:28:04.176Z,1009.66
2022-07-25T03:29:04.333Z,1009.69
2022-07-25T03:30:04.524Z,1009.71
2022-07-25T03:31:04.671Z,1009.65
2022-07-25T03:32:04.968Z,1009.60
2022-07-25T03:33:05.163Z,1009.61
2022-07-25T03:34:05.682Z,1009.59
2022-07-25T03:35:05.535Z,1009.60
2022-07-25T03:36:05.704Z,1009.58
2022-07-25T03:37:05.857Z,1009.55
2022-07-25T03:38:06.040Z,1009.56
2022-07-25T03:39:06.215Z,1009.53
2022-07-25T03:40:06.438Z,1009.54
2022-07-25T03:41:06.542Z,1009.53
2022-07-25T03:42:06.726Z,1009.51
2022-07-25T03:43:06.920Z,1009.48
2022-07-25T03:44:07.534Z,1009.48
2022-07-25T03:45:07.369Z,1009.48
2022-07-25T03:46:07.540Z,1009.47
2022-07-25T03:47:07.606Z,1009.49
2022-07-25T03:48:07.782Z,1009.49
2022-07-25T03:49:08.040Z,1009.46
2022-07-25T03:50:08.165Z,1009.48
2022-07-25T03:51:08.435Z,1009.45
2022-07-25T03:52:08.643Z,1009.44
2022-07-25T03:53:10.261Z,1009.43
2022-07-25T03:54:09.560Z,1009.40
2022-07-25T03:55:09.302Z,1009.35
2022-07-25T03:56:09.445Z,1009.40
2022-07-25T03:57:09.603Z,1009.31
2022-07-25T03:58:09.802Z,1009.29
2022-07-25T03:59:09.965Z,1009.31
2022-07-25T04:00:10.198Z,1009.29
2022-07-25T04:01:10.732Z,1009.30
2022-07-25T04:02:10.582Z,1009.27
2022-07-25T04:03:10.722Z,1009.28
2022-07-25T04:04:10.909Z,1009.27
2022-07-25T04:05:11.095Z,1009.27
2022-07-25T04:06:11.277Z,1009.23
2022-07-25T04:07:11.454Z,1009.23
2022-07-25T04:08:11.633Z,1009.22
2022-07-25T04:09:11.792Z,1009.22
2022-07-25T04:10:12.002Z,1009.14
2022-07-25T04:11:12.157Z,1009.17
2022-07-25T04:12:12.396Z,1009.11
2022-07-25T04:13:12.551Z,1009.08
2022-07-25T04:14:12.747Z,1009.11
2022-07-25T04:15:12.946Z,1008.93
2022-07-25T04:16:16.345Z,1009.01
2022-07-25T04:17:13.421Z,1009.02
2022-07-25T04:18:13.507Z,1008.95
2022-07-25T04:19:13.706Z,1008.99
2022-07-25T04:20:13.908Z,1008.97
2022-07-25T04:21:14.064Z,1008.94
2022-07-25T04:22:14.256Z,1008.94
2022-07-25T04:23:14.447Z,1008.91
2022-07-25T04:24:14.651Z,1008.87
2022-07-25T04:25:14.859Z,1008.94
2022-07-25T04:26:15.034Z,1008.86
2022-07-25T04:27:15.229Z,1008.84
2022-07-25T04:28:15.432Z,1008.82
2022-07-25T04:29:15.606Z,1008.77
2022-07-25T04:30:24.391Z,1008.80
2022-07-25T04:31:16.175Z,1008.81
2022-07-25T04:32:21.424Z,1008.80
2022-07-25T04:33:16.386Z,1008.81
2022-07-25T04:34:16.553Z,1008.79
2022-07-25T04:35:16.782Z,1008.71
2022-07-25T04:36:16.953Z,1008.79
2022-07-25T04:37:17.126Z,1008.71
2022-07-25T04:38:17.321Z,1008.70
2022-07-25T04:39:17.524Z,1008.69
2022-07-25T04:40:17.765Z,1008.69
2022-07-25T04:41:17.916Z,1008.68
2022-07-25T04:42:18.079Z,1008.60
2022-07-25T04:43:18.260Z,1008.61
2022-07-25T04:44:18.460Z,1008.63
2022-07-25T04:45:18.680Z,1008.63
2022-07-25T04:46:18.915Z,1008.60
2022-07-25T04:47:19.029Z,1008.59
2022-07-25T04:48:19.203Z,1008.57
2022-07-25T04:49:19.473Z,1008.61
2022-07-25T04:50:24.547Z,1008.63
2022-07-25T04:51:19.791Z,1008.53
2022-07-25T04:52:20.007Z,1008.58
2022-07-25T04:53:20.177Z,1008.51
2022-07-25T04:54:20.338Z,1008.56
2022-07-25T04:55:20.552Z,1008.48
2022-07-25T04:56:20.709Z,1008.44
2022-07-25T04:57:20.901Z,1008.43
2022-07-25T04:58:21.089Z,1008.46
2022-07-25T04:59:21.275Z,1008.42
2022-07-25T05:00:21.530Z,1008.38
2022-07-25T05:01:21.725Z,1008.38
2022-07-25T05:02:21.895Z,1008.32
2022-07-25T05:03:22.075Z,1008.36
2022-07-25T05:04:22.230Z,1008.33
2022-07-25T05:05:22.493Z,1008.33
2022-07-25T05:06:22.620Z,1008.35
2022-07-25T05:07:22.820Z,1008.33
2022-07-25T05:08:23.012Z,1008.35
2022-07-25T05:09:23.205Z,1008.32
2022-07-25T05:10:23.415Z,1008.33
2022-07-25T05:11:23.588Z,1008.26
2022-07-25T05:12:23.790Z,1008.31
2022-07-25T05:13:23.986Z,1008.31
2022-07-25T05:14:24.196Z,1008.29
2022-07-25T05:15:24.356Z,1008.27
2022-07-25T05:16:24.657Z,1008.24
2022-07-25T05:17:24.759Z,1008.29
2022-07-25T05:18:24.961Z,1008.24
2022-07-25T05:19:25.165Z,1008.25
2022-07-25T05:20:25.366Z,1008.22
2022-07-25T05:21:25.566Z,1008.16
2022-07-25T05:22:28.491Z,1008.18
2022-07-25T05:23:25.926Z,1008.22
2022-07-25T05:24:26.123Z,1008.18
2022-07-25T05:25:26.345Z,1008.18
2022-07-25T05:26:26.507Z,1008.16
2022-07-25T05:27:26.699Z,1008.10
2022-07-25T05:28:26.939Z,1008.07
2022-07-25T05:29:27.106Z,1008.10
2022-07-25T05:30:27.317Z,1008.13
2022-07-25T05:31:27.517Z,1008.08
2022-07-25T05:32:27.638Z,1008.09
2022-07-25T05:33:27.849Z,1008.11
2022-07-25T05:34:28.026Z,1008.11
2022-07-25T05:35:28.215Z,1008.14
2022-07-25T05:36:28.373Z,1008.09
2022-07-25T05:37:28.574Z,1008.05
2022-07-25T05:38:28.778Z,1008.09
2022-07-25T05:39:28.948Z,1008.01
2022-07-25T05:40:29.185Z,1007.99
2022-07-25T05:41:29.351Z,1008.00
2022-07-25T05:42:29.548Z,1007.95
2022-07-25T05:43:29.755Z,1008.01
2022-07-25T05:44:29.926Z,1008.01
2022-07-25T05:45:30.156Z,1007.99
2022-07-25T05:46:30.345Z,1007.98
2022-07-25T05:47:30.500Z,1007.97
2022-07-25T05:48:30.797Z,1007.93
2022-07-25T05:49:30.941Z,1007.95
2022-07-25T05:50:31.081Z,1007.88
2022-07-25T05:51:31.248Z,1007.92
2022-07-25T05:52:31.440Z,1007.90
2022-07-25T05:53:31.636Z,1007.89
2022-07-25T05:54:31.818Z,1007.88
2022-07-25T05:55:32.025Z,1007.88
2022-07-25T05:56:32.184Z,1007.87
2022-07-25T05:57:32.361Z,1007.79
2022-07-25T05:58:32.551Z,1007.82
2022-07-25T05:59:32.747Z,1007.81
2022-07-25T06:00:32.965Z,1007.82
2022-07-25T06:01:33.168Z,1007.81
2022-07-25T06:02:33.482Z,1007.73
2022-07-25T06:03:33.485Z,1007.73
2022-07-25T06:04:33.696Z,1007.71
2022-07-25T06:05:33.875Z,1007.70
2022-07-25T06:06:34.027Z,1007.69
2022-07-25T06:07:34.232Z,1007.69
2022-07-25T06:08:34.440Z,1007.68
2022-07-25T06:09:34.654Z,1007.70
2022-07-25T06:10:34.823Z,1007.68
2022-07-25T06:11:35.062Z,1007.65
2022-07-25T06:12:36.745Z,1007.64
2022-07-25T06:13:35.385Z,1007.60
2022-07-25T06:14:35.579Z,1007.62
2022-07-25T06:15:35.798Z,1007.66
2022-07-25T06:16:36.060Z,1007.60
2022-07-25T06:17:36.145Z,1007.67
2022-07-25T06:18:36.346Z,1007.60
2022-07-25T06:19:36.540Z,1007.64
2022-07-25T06:20:36.757Z,1007.62
2022-07-25T06:21:36.919Z,1007.63
2022-07-25T06:22:37.109Z,1007.65
2022-07-25T06:23:37.309Z,1007.64
2022-07-25T06:24:37.514Z,1007.65
2022-07-25T06:25:37.690Z,1007.66
2022-07-25T06:26:37.871Z,1007.65
2022-07-25T06:27:38.068Z,1007.65
2022-07-25T06:28:38.279Z,1007.67
2022-07-25T06:29:38.436Z,1007.71
2022-07-25T06:30:38.653Z,1007.63
2022-07-25T06:31:38.876Z,1007.69
2022-07-25T06:32:39.008Z,1007.66
2022-07-25T06:33:39.218Z,1007.65
2022-07-25T06:34:39.367Z,1007.57
2022-07-25T06:35:39.587Z,1007.57
2022-07-25T06:36:39.737Z,1007.59
2022-07-25T06:37:39.941Z,1007.62
2022-07-25T06:38:40.117Z,1007.56
2022-07-25T06:39:43.862Z,1007.66
2022-07-25T06:40:40.544Z,1007.62
2022-07-25T06:41:40.666Z,1007.57
2022-07-25T06:42:40.859Z,1007.61
2022-07-25T06:43:41.064Z,1007.62
2022-07-25T06:44:41.294Z,1007.66
2022-07-25T06:45:41.475Z,1007.54
2022-07-25T06:46:41.750Z,1007.57
2022-07-25T06:47:41.804Z,1007.60
2022-07-25T06:48:42.047Z,1007.61
2022-07-25T06:49:42.187Z,1007.63
2022-07-25T06:50:42.383Z,1007.56
2022-07-25T06:51:42.532Z,1007.56
2022-07-25T06:52:42.695Z,1007.57
2022-07-25T06:53:42.893Z,1007.55
2022-07-25T06:54:43.067Z,1007.57
2022-07-25T06:55:43.291Z,1007.54
2022-07-25T06:56:43.441Z,1007.56
2022-07-25T06:57:43.620Z,1007.56
2022-07-25T06:58:43.792Z,1007.57
2022-07-25T06:59:44.009Z,1007.46
2022-07-25T07:00:44.275Z,1007.47
2022-07-25T07:01:49.509Z,1007.47
2022-07-25T07:02:44.537Z,1007.46
2022-07-25T07:03:44.828Z,1007.45
2022-07-25T07:04:44.912Z,1007.36
2022-07-25T07:05:45.121Z,1007.37
2022-07-25T07:06:45.262Z,1007.38
2022-07-25T07:07:47.820Z,1007.38
2022-07-25T07:08:45.655Z,1007.33
2022-07-25T07:09:45.831Z,1007.35
2022-07-25T07:10:46.041Z,1007.33
2022-07-25T07:11:46.247Z,1007.34
2022-07-25T07:12:46.443Z,1007.30
2022-07-25T07:13:46.659Z,1007.29
2022-07-25T07:14:46.859Z,1007.35
2022-07-25T07:15:47.196Z,1007.29
2022-07-25T07:16:47.321Z,1007.30
2022-07-25T07:17:47.399Z,1007.27
2022-07-25T07:18:49.418Z,1007.24
2022-07-25T07:19:47.764Z,1007.33
2022-07-25T07:20:47.968Z,1007.24
2022-07-25T07:21:48.169Z,1007.19
2022-07-25T07:22:48.367Z,1007.23
2022-07-25T07:23:48.612Z,1007.19
2022-07-25T07:24:48.726Z,1007.20
2022-07-25T07:25:48.963Z,1007.21
2022-07-25T07:26:49.100Z,1007.22
2022-07-25T07:27:49.287Z,1007.13
2022-07-25T07:28:49.487Z,1007.14
2022-07-25T07:29:49.709Z,1007.11
2022-07-25T07:31:15.140Z,1007.12
2022-07-25T07:31:50.125Z,1007.11
2022-07-25T07:32:50.259Z,1007.07
2022-07-25T07:33:50.465Z,1007.08
2022-07-25T07:34:50.654Z,1007.05
2022-07-25T07:35:50.882Z,1007.06
2022-07-25T07:36:51.047Z,1006.99
2022-07-25T07:37:51.240Z,1007.05
2022-07-25T07:38:51.437Z,1006.97
2022-07-25T07:39:51.640Z,1006.99
2022-07-25T07:40:51.872Z,1006.90
2022-07-25T07:41:52.000Z,1006.97
2022-07-25T07:42:52.201Z,1006.87
2022-07-25T07:43:52.397Z,1006.92
2022-07-25T07:44:52.590Z,1006.90
2022-07-25T07:45:52.803Z,1006.92
2022-07-25T07:46:53.107Z,1006.89
2022-07-25T07:47:53.153Z,1006.86
2022-07-25T07:48:53.409Z,1006.86
2022-07-25T07:49:53.555Z,1006.82
2022-07-25T07:50:53.768Z,1006.86
2022-07-25T07:51:53.913Z,1006.79
2022-07-25T07:52:54.115Z,1006.83
2022-07-25T07:53:54.308Z,1006.83
2022-07-25T07:54:59.226Z,1006.84
2022-07-25T07:55:54.709Z,1006.84
2022-07-25T07:56:54.877Z,1006.83
2022-07-25T07:57:55.084Z,1006.85
2022-07-25T07:58:55.283Z,1006.85
2022-07-25T07:59:55.484Z,1006.84
2022-07-25T08:00:55.700Z,1006.83
2022-07-25T08:01:55.915Z,1006.79
2022-07-25T08:02:56.125Z,1006.78
2022-07-25T08:03:56.254Z,1006.79
2022-07-25T08:04:56.484Z,1006.77
2022-07-25T08:05:56.658Z,1006.85
2022-07-25T08:06:56.855Z,1006.79
2022-07-25T08:07:57.068Z,1006.70
2022-07-25T08:08:57.248Z,1006.71
2022-07-25T08:09:57.459Z,1006.74
2022-07-25T08:10:59.174Z,1006.78
2022-07-25T08:11:57.856Z,1006.73
2022-07-25T08:12:58.052Z,1006.71
2022-07-25T08:13:58.230Z,1006.66
2022-07-25T08:14:58.415Z,1006.66
2022-07-25T08:15:58.724Z,1006.65
2022-07-25T08:16:58.806Z,1006.64
2022-07-25T08:17:59.015Z,1006.62
2022-07-25T08:18:59.184Z,1006.57
2022-07-25T08:20:14.697Z,1006.59
2022-07-25T08:20:59.687Z,1006.61
2022-07-25T08:21:59.808Z,1006.59
2022-07-25T08:23:00.027Z,1006.48
2022-07-25T08:24:00.239Z,1006.62
2022-07-25T08:25:00.440Z,1006.54
2022-07-25T08:26:00.667Z,1006.58
2022-07-25T08:27:00.833Z,1006.53
2022-07-25T08:28:01.108Z,1006.53
2022-07-25T08:29:18.135Z,1006.52
2022-07-25T08:30:01.489Z,1006.54
2022-07-25T08:31:01.783Z,1006.48
2022-07-25T08:32:01.860Z,1006.50
2022-07-25T08:33:02.105Z,1006.51
2022-07-25T08:34:02.288Z,1006.44
2022-07-25T08:35:02.499Z,1006.47
2022-07-25T08:36:02.690Z,1006.42
2022-07-25T08:37:02.890Z,1006.50
2022-07-25T08:38:03.091Z,1006.43
2022-07-25T08:39:03.345Z,1006.44
2022-07-25T08:40:03.483Z,1006.45
2022-07-25T08:41:03.719Z,1006.49
2022-07-25T08:42:07.705Z,1006.49
2022-07-25T08:43:04.062Z,1006.46
2022-07-25T08:44:04.589Z,1006.42
2022-07-25T08:45:04.491Z,1006.43
2022-07-25T08:46:04.738Z,1006.44
2022-07-25T08:47:04.859Z,1006.41
2022-07-25T08:48:05.069Z,1006.38
2022-07-25T08:49:05.309Z,1006.40
2022-07-25T08:50:05.454Z,1006.33
2022-07-25T08:51:05.675Z,1006.31
2022-07-25T08:52:05.857Z,1006.35
2022-07-25T08:53:31.578Z,1006.33
2022-07-25T08:54:06.540Z,1006.33
2022-07-25T08:55:06.429Z,1006.32
2022-07-25T08:56:20.456Z,1006.39
2022-07-25T08:57:06.838Z,1006.37
2022-07-25T08:58:07.031Z,1006.46
2022-07-25T08:59:07.232Z,1006.35
2022-07-25T09:00:07.431Z,1006.34
2022-07-25T09:01:07.611Z,1006.31
2022-07-25T09:02:07.799Z,1006.34
2022-07-25T09:03:07.992Z,1006.32
2022-07-25T09:04:08.567Z,1006.34
2022-07-25T09:05:08.287Z,1006.36
2022-07-25T09:06:08.498Z,1006.31
2022-07-25T09:07:08.651Z,1006.34
2022-07-25T09:08:08.855Z,1006.30
2022-07-25T09:09:09.061Z,1006.25
2022-07-25T09:10:09.280Z,1006.25
2022-07-25T09:11:09.473Z,1006.18
2022-07-25T09:12:09.630Z,1006.11
2022-07-25T09:13:09.837Z,1006.13
2022-07-25T09:14:10.642Z,1006.13
2022-07-25T09:15:10.267Z,1006.15
2022-07-25T09:16:10.498Z,1006.14
2022-07-25T09:17:22.189Z,1006.12
2022-07-25T09:18:10.987Z,1006.08
2022-07-25T09:19:11.030Z,1006.14
2022-07-25T09:20:14.163Z,1006.08
2022-07-25T09:21:11.468Z,1006.06
2022-07-25T09:22:11.670Z,1006.18
2022-07-25T09:23:11.857Z,1006.13
2022-07-25T09:24:12.044Z,1006.09
2022-07-25T09:25:12.224Z,1006.12
2022-07-25T09:26:12.418Z,1006.09
2022-07-25T09:27:13.046Z,1006.11
2022-07-25T09:28:12.813Z,1006.11
2022-07-25T09:29:16.171Z,1006.16
2022-07-25T09:30:13.220Z,1006.18
2022-07-25T09:31:13.566Z,1006.23
2022-07-25T09:32:13.618Z,1006.11
2022-07-25T09:33:13.803Z,1006.15
2022-07-25T09:34:13.991Z,1006.22
2022-07-25T09:35:14.182Z,1006.14
2022-07-25T09:36:14.396Z,1006.08
2022-07-25T09:37:14.567Z,1006.08
2022-07-25T09:38:14.757Z,1006.07
2022-07-25T09:39:14.963Z,1006.02
2022-07-25T09:40:15.164Z,1006.00
2022-07-25T09:41:15.399Z,1006.18
2022-07-25T09:42:15.550Z,1006.08
2022-07-25T09:43:15.756Z,1006.11
2022-07-25T09:44:15.950Z,1006.05
2022-07-25T09:45:16.149Z,1006.02
2022-07-25T09:46:16.415Z,1006.01
2022-07-25T09:47:16.557Z,1005.98
2022-07-25T09:48:16.736Z,1006.01
2022-07-25T09:49:16.975Z,1006.01
2022-07-25T09:50:17.118Z,1005.99
2022-07-25T09:51:17.340Z,1005.99
2022-07-25T09:52:17.490Z,1005.97
2022-07-25T09:53:17.683Z,1005.93
2022-07-25T09:54:17.879Z,1005.91
2022-07-25T09:55:18.086Z,1005.89
2022-07-25T09:56:18.308Z,1005.93
2022-07-25T09:57:18.509Z,1005.83
2022-07-25T09:58:18.705Z,1005.83
2022-07-25T09:59:18.878Z,1005.88
2022-07-25T10:00:19.580Z,1005.90
2022-07-25T10:01:19.324Z,1005.89
2022-07-25T10:02:19.532Z,1005.88
2022-07-25T10:03:19.685Z,1005.90
2022-07-25T10:04:19.888Z,1005.90
2022-07-25T10:05:20.082Z,1005.87
2022-07-25T10:06:20.284Z,1005.88
2022-07-25T10:07:20.481Z,1005.91
2022-07-25T10:08:20.669Z,1005.91
2022-07-25T10:09:20.864Z,1005.97
2022-07-25T10:10:21.060Z,1005.96
2022-07-25T10:11:21.273Z,1005.92
2022-07-25T10:12:21.429Z,1005.85
2022-07-25T10:13:21.638Z,1005.88
2022-07-25T10:14:21.830Z,1005.83
2022-07-25T10:15:22.030Z,1005.93
2022-07-25T10:16:22.305Z,1005.89
2022-07-25T10:17:22.517Z,1005.85
2022-07-25T10:18:22.617Z,1005.87
2022-07-25T10:19:22.801Z,1005.85
2022-07-25T10:20:22.984Z,1005.86
2022-07-25T10:21:26.681Z,1005.80
2022-07-25T10:22:46.303Z,1005.84
2022-07-25T10:23:23.586Z,1005.79
2022-07-25T10:24:23.776Z,1005.75
2022-07-25T10:25:23.983Z,1005.72
2022-07-25T10:26:24.175Z,1005.70
2022-07-25T10:27:24.375Z,1005.76
2022-07-25T10:28:24.580Z,1005.70
2022-07-25T10:29:24.797Z,1005.70
2022-07-25T10:30:24.991Z,1005.71
2022-07-25T10:31:25.262Z,1005.82
2022-07-25T10:32:25.389Z,1005.79
2022-07-25T10:33:25.585Z,1005.74
2022-07-25T10:34:25.777Z,1005.70
2022-07-25T10:35:25.964Z,1005.72
2022-07-25T10:36:26.160Z,1005.71
2022-07-25T10:37:26.345Z,1005.66
2022-07-25T10:38:26.535Z,1005.67
2022-07-25T10:39:26.719Z,1005.68
2022-07-25T10:40:26.908Z,1005.68
2022-07-25T10:41:27.165Z,1005.71
2022-07-25T10:42:27.338Z,1005.66
2022-07-25T10:43:27.514Z,1005.69
2022-07-25T10:44:27.718Z,1005.68
2022-07-25T10:45:27.911Z,1005.66
2022-07-25T10:46:28.231Z,1005.65
2022-07-25T10:47:28.306Z,1005.64
2022-07-25T10:48:28.513Z,1005.62
2022-07-25T10:49:32.282Z,1005.59
2022-07-25T10:50:53.675Z,1005.66
2022-07-25T10:51:29.129Z,1005.52
2022-07-25T10:52:29.322Z,1005.55
2022-07-25T10:53:29.551Z,1005.57
2022-07-25T10:54:29.760Z,1005.54
2022-07-25T10:55:29.969Z,1005.51
2022-07-25T10:56:30.171Z,1005.54
2022-07-25T10:57:32.155Z,1005.54
2022-07-25T10:58:30.552Z,1005.54
2022-07-25T10:59:30.736Z,1005.58
2022-07-25T11:00:30.934Z,1005.63
2022-07-25T11:01:31.236Z,1005.53
2022-07-25T11:02:31.354Z,1005.59
2022-07-25T11:03:31.510Z,1005.59
2022-07-25T11:04:31.698Z,1005.64
2022-07-25T11:05:31.889Z,1005.52
2022-07-25T11:06:32.090Z,1005.58
2022-07-25T11:07:32.284Z,1005.61
2022-07-25T11:08:32.473Z,1005.62
2022-07-25T11:09:32.665Z,1005.69
2022-07-25T11:10:32.850Z,1005.68
2022-07-25T11:11:33.068Z,1005.71
2022-07-25T11:12:33.223Z,1005.64
2022-07-25T11:13:33.413Z,1005.64
2022-07-25T11:14:33.616Z,1005.64
2022-07-25T11:15:33.824Z,1005.64
2022-07-25T11:16:34.110Z,1005.59
2022-07-25T11:17:34.266Z,1005.59
2022-07-25T11:18:34.444Z,1005.53
2022-07-25T11:19:34.625Z,1005.55
2022-07-25T11:20:34.851Z,1005.45
2022-07-25T11:21:35.015Z,1005.52
2022-07-25T11:22:35.202Z,1005.52
2022-07-25T11:23:35.413Z,1005.52
2022-07-25T11:24:35.646Z,1005.42
2022-07-25T11:25:35.802Z,1005.42
2022-07-25T11:26:36.015Z,1005.47
2022-07-25T11:27:36.207Z,1005.52
2022-07-25T11:28:36.402Z,1005.60
2022-07-25T11:29:36.601Z,1005.50
2022-07-25T11:30:36.791Z,1005.39
2022-07-25T11:31:37.041Z,1005.40
2022-07-25T11:32:37.170Z,1005.35
2022-07-25T11:33:38.773Z,1005.58
2022-07-25T11:34:37.590Z,1005.54
2022-07-25T11:35:37.777Z,1005.39
2022-07-25T11:36:37.973Z,1005.31
2022-07-25T11:37:38.175Z,1005.47
2022-07-25T11:38:38.366Z,1005.44
2022-07-25T11:39:38.570Z,1005.51
2022-07-25T11:40:38.762Z,1005.43
2022-07-25T11:41:39.013Z,1005.38
2022-07-25T11:42:39.142Z,1005.31
2022-07-25T11:43:39.356Z,1005.24
2022-07-25T11:44:41.886Z,1005.20
2022-07-25T11:45:39.875Z,1005.02
2022-07-25T11:46:39.993Z,1005.13
2022-07-25T11:47:40.190Z,1005.00
2022-07-25T11:48:40.442Z,1004.97
2022-07-25T11:49:40.608Z,1004.95
2022-07-25T11:50:40.800Z,1005.00
2022-07-25T11:51:41.032Z,1005.02
2022-07-25T11:52:41.214Z,1004.96
2022-07-25T11:53:41.422Z,1004.95
2022-07-25T11:54:41.599Z,1004.87
2022-07-25T11:55:41.805Z,1004.85
2022-07-25T11:56:43.438Z,1004.92
2022-07-25T11:57:42.203Z,1004.97
2022-07-25T11:58:42.411Z,1004.99
2022-07-25T11:59:42.606Z,1005.04
2022-07-25T12:00:42.792Z,1004.98
2022-07-25T12:01:43.010Z,1005.06
2022-07-25T12:02:43.367Z,1005.02
2022-07-25T12:03:43.518Z,1004.81
2022-07-25T12:04:43.660Z,1004.80
2022-07-25T12:05:43.787Z,1004.81
2022-07-25T12:06:43.991Z,1004.82
2022-07-25T12:07:44.202Z,1004.58
2022-07-25T12:08:44.404Z,1004.67